sensor_id;sensor_type;location;lat;lon;timestamp;temperature;humidity
19966;DHT22;10144;50.874;4.762;2023-06-26T00:01:10;24.20;99.90
19966;DHT22;10144;50.874;4.762;2023-06-26T00:03:38;24.00;99.90
19966;DHT22;10144;50.874;4.762;2023-06-26T00:06:07;24.00;99.90
19966;DHT22;10144;50.874;4.762;2023-06-26T00:08:33;24.00;99.90
19966;DHT22;10144;50.874;4.762;2023-06-26T00:10:58;24.00;99.90
19966;DHT22;10144;50.874;4.762;2023-06-26T00:13:27;23.80;99.90
19966;DHT22;10144;50.874;4.762;2023-06-26T00:15:59;23.80;99.90
19966;DHT22;10144;50.874;4.762;2023-06-26T00:18:31;23.70;99.90
19966;DHT22;10144;50.874;4.762;2023-06-26T00:20:57;23.60;99.90
19966;DHT22;10144;50.874;4.762;2023-06-26T00:23:25;23.70;99.90
19966;DHT22;10144;50.874;4.762;2023-06-26T00:25:56;23.60;99.90
19966;DHT22;10144;50.874;4.762;2023-06-26T00:28:38;23.70;99.90
19966;DHT22;10144;50.874;4.762;2023-06-26T00:31:04;23.80;99.90
19966;DHT22;10144;50.874;4.762;2023-06-26T00:33:36;23.70;99.90
19966;DHT22;10144;50.874;4.762;2023-06-26T00:36:04;23.70;99.90
19966;DHT22;10144;50.874;4.762;2023-06-26T00:38:32;23.70;99.90
19966;DHT22;10144;50.874;4.762;2023-06-26T00:40:59;23.50;99.90
19966;DHT22;10144;50.874;4.762;2023-06-26T00:43:27;23.40;99.90
19966;DHT22;10144;50.874;4.762;2023-06-26T00:45:58;23.40;99.90
19966;DHT22;10144;50.874;4.762;2023-06-26T00:48:27;23.30;99.90
19966;DHT22;10144;50.874;4.762;2023-06-26T00:50:56;23.30;99.90
19966;DHT22;10144;50.874;4.762;2023-06-26T00:53:23;23.30;99.90
19966;DHT22;10144;50.874;4.762;2023-06-26T00:55:51;23.00;99.90
19966;DHT22;10144;50.874;4.762;2023-06-26T00:58:18;23.10;99.90
19966;DHT22;10144;50.874;4.762;2023-06-26T01:00:47;23.10;99.90
19966;DHT22;10144;50.874;4.762;2023-06-26T01:03:18;23.10;99.90
19966;DHT22;10144;50.874;4.762;2023-06-26T01:05:44;23.00;99.90
19966;DHT22;10144;50.874;4.762;2023-06-26T01:08:17;22.90;99.90
19966;DHT22;10144;50.874;4.762;2023-06-26T01:10:49;22.90;99.90
19966;DHT22;10144;50.874;4.762;2023-06-26T01:13:19;22.80;99.90
19966;DHT22;10144;50.874;4.762;2023-06-26T01:15:46;22.80;99.90
19966;DHT22;10144;50.874;4.762;2023-06-26T01:18:16;22.80;99.90
19966;DHT22;10144;50.874;4.762;2023-06-26T01:20:48;22.60;99.90
19966;DHT22;10144;50.874;4.762;2023-06-26T01:23:26;22.50;99.90
19966;DHT22;10144;50.874;4.762;2023-06-26T01:26:19;22.40;99.90
19966;DHT22;10144;50.874;4.762;2023-06-26T01:28:53;22.10;99.90
19966;DHT22;10144;50.874;4.762;2023-06-26T01:31:19;22.00;99.90
19966;DHT22;10144;50.874;4.762;2023-06-26T01:33:45;21.90;99.90
19966;DHT22;10144;50.874;4.762;2023-06-26T01:36:14;21.80;99.90
19966;DHT22;10144;50.874;4.762;2023-06-26T01:38:43;21.70;99.90
19966;DHT22;10144;50.874;4.762;2023-06-26T01:41:13;21.70;99.90
19966;DHT22;10144;50.874;4.762;2023-06-26T01:55:07;21.50;99.90
19966;DHT22;10144;50.874;4.762;2023-06-26T01:57:32;21.40;99.90
19966;DHT22;10144;50.874;4.762;2023-06-26T01:59:59;21.40;99.90
19966;DHT22;10144;50.874;4.762;2023-06-26T02:02:28;21.40;99.90
19966;DHT22;10144;50.874;4.762;2023-06-26T02:04:58;21.40;99.90
19966;DHT22;10144;50.874;4.762;2023-06-26T02:07:33;21.40;99.90
19966;DHT22;10144;50.874;4.762;2023-06-26T02:10:02;21.30;99.90
19966;DHT22;10144;50.874;4.762;2023-06-26T02:12:29;21.20;99.90
19966;DHT22;10144;50.874;4.762;2023-06-26T02:14:59;21.20;99.90
19966;DHT22;10144;50.874;4.762;2023-06-26T02:17:24;21.40;99.90
19966;DHT22;10144;50.874;4.762;2023-06-26T02:19:53;21.40;99.90
19966;DHT22;10144;50.874;4.762;2023-06-26T02:22:21;21.30;99.90
19966;DHT22;10144;50.874;4.762;2023-06-26T02:24:49;21.30;99.90
19966;DHT22;10144;50.874;4.762;2023-06-26T02:27:15;21.30;99.90
19966;DHT22;10144;50.874;4.762;2023-06-26T02:29:48;21.20;99.90
19966;DHT22;10144;50.874;4.762;2023-06-26T02:32:16;21.20;99.90
19966;DHT22;10144;50.874;4.762;2023-06-26T02:34:58;21.10;99.90
19966;DHT22;10144;50.874;4.762;2023-06-26T02:37:26;21.10;99.90
19966;DHT22;10144;50.874;4.762;2023-06-26T02:39:58;21.10;99.90
19966;DHT22;10144;50.874;4.762;2023-06-26T02:42:27;21.20;99.90
19966;DHT22;10144;50.874;4.762;2023-06-26T02:44:56;21.10;99.90
19966;DHT22;10144;50.874;4.762;2023-06-26T02:47:35;21.10;99.90
19966;DHT22;10144;50.874;4.762;2023-06-26T02:50:10;21.10;99.90
19966;DHT22;10144;50.874;4.762;2023-06-26T02:52:39;21.00;99.90
19966;DHT22;10144;50.874;4.762;2023-06-26T02:55:06;21.00;99.90
19966;DHT22;10144;50.874;4.762;2023-06-26T02:57:35;20.90;99.90
19966;DHT22;10144;50.874;4.762;2023-06-26T03:00:03;20.70;99.90
19966;DHT22;10144;50.874;4.762;2023-06-26T03:02:32;20.70;99.90
19966;DHT22;10144;50.874;4.762;2023-06-26T03:04:58;20.60;99.90
19966;DHT22;10144;50.874;4.762;2023-06-26T03:07:25;20.60;99.90
19966;DHT22;10144;50.874;4.762;2023-06-26T03:09:56;20.50;99.90
19966;DHT22;10144;50.874;4.762;2023-06-26T03:12:25;20.50;99.90
19966;DHT22;10144;50.874;4.762;2023-06-26T03:14:54;20.50;99.90
19966;DHT22;10144;50.874;4.762;2023-06-26T03:17:23;20.50;99.90
19966;DHT22;10144;50.874;4.762;2023-06-26T03:19:52;20.40;99.90
19966;DHT22;10144;50.874;4.762;2023-06-26T03:22:19;20.30;99.90
19966;DHT22;10144;50.874;4.762;2023-06-26T03:24:48;20.40;99.90
19966;DHT22;10144;50.874;4.762;2023-06-26T03:27:15;20.50;99.90
19966;DHT22;10144;50.874;4.762;2023-06-26T03:29:47;20.40;99.90
19966;DHT22;10144;50.874;4.762;2023-06-26T03:32:16;20.30;99.90
19966;DHT22;10144;50.874;4.762;2023-06-26T03:34:44;20.40;99.90
19966;DHT22;10144;50.874;4.762;2023-06-26T03:37:12;20.40;99.90
19966;DHT22;10144;50.874;4.762;2023-06-26T03:39:38;20.20;99.90
19966;DHT22;10144;50.874;4.762;2023-06-26T03:42:07;20.20;99.90
19966;DHT22;10144;50.874;4.762;2023-06-26T03:44:33;20.20;99.90
19966;DHT22;10144;50.874;4.762;2023-06-26T03:47:02;20.00;99.90
19966;DHT22;10144;50.874;4.762;2023-06-26T03:49:39;20.10;99.90
19966;DHT22;10144;50.874;4.762;2023-06-26T03:52:14;20.00;99.90
19966;DHT22;10144;50.874;4.762;2023-06-26T03:54:43;20.00;99.90
19966;DHT22;10144;50.874;4.762;2023-06-26T03:57:09;20.10;99.90
19966;DHT22;10144;50.874;4.762;2023-06-26T03:59:45;20.10;99.90
19966;DHT22;10144;50.874;4.762;2023-06-26T04:02:14;20.00;99.90
19966;DHT22;10144;50.874;4.762;2023-06-26T04:04:39;20.00;99.90
19966;DHT22;10144;50.874;4.762;2023-06-26T04:07:05;19.90;99.90
19966;DHT22;10144;50.874;4.762;2023-06-26T04:09:49;19.90;99.90
19966;DHT22;10144;50.874;4.762;2023-06-26T04:12:15;19.80;99.90
19966;DHT22;10144;50.874;4.762;2023-06-26T04:14:42;19.90;99.90
19966;DHT22;10144;50.874;4.762;2023-06-26T04:17:11;19.90;99.90
19966;DHT22;10144;50.874;4.762;2023-06-26T04:19:40;19.90;99.90
19966;DHT22;10144;50.874;4.762;2023-06-26T04:22:09;20.00;99.90
19966;DHT22;10144;50.874;4.762;2023-06-26T04:24:37;19.90;99.90
19966;DHT22;10144;50.874;4.762;2023-06-26T04:27:06;19.90;99.90
19966;DHT22;10144;50.874;4.762;2023-06-26T04:29:38;19.90;99.90
19966;DHT22;10144;50.874;4.762;2023-06-26T04:32:05;20.00;99.90
19966;DHT22;10144;50.874;4.762;2023-06-26T04:34:35;20.00;99.90
19966;DHT22;10144;50.874;4.762;2023-06-26T04:37:12;19.90;99.90
19966;DHT22;10144;50.874;4.762;2023-06-26T04:39:44;19.80;99.90
19966;DHT22;10144;50.874;4.762;2023-06-26T04:42:18;19.90;99.90
19966;DHT22;10144;50.874;4.762;2023-06-26T04:44:50;19.80;99.90
19966;DHT22;10144;50.874;4.762;2023-06-26T04:47:21;20.10;99.90
19966;DHT22;10144;50.874;4.762;2023-06-26T04:49:50;20.30;99.90
19966;DHT22;10144;50.874;4.762;2023-06-26T04:52:19;20.50;99.90
19966;DHT22;10144;50.874;4.762;2023-06-26T04:54:45;20.80;99.90
19966;DHT22;10144;50.874;4.762;2023-06-26T04:57:14;21.00;99.90
19966;DHT22;10144;50.874;4.762;2023-06-26T04:59:41;20.80;99.90
19966;DHT22;10144;50.874;4.762;2023-06-26T05:02:15;20.80;99.90
19966;DHT22;10144;50.874;4.762;2023-06-26T05:05:03;20.90;99.90
19966;DHT22;10144;50.874;4.762;2023-06-26T05:07:30;20.80;99.90
19966;DHT22;10144;50.874;4.762;2023-06-26T05:09:59;21.00;99.90
19966;DHT22;10144;50.874;4.762;2023-06-26T05:12:27;21.10;99.90
19966;DHT22;10144;50.874;4.762;2023-06-26T05:14:53;21.20;99.90
19966;DHT22;10144;50.874;4.762;2023-06-26T05:17:19;21.20;99.90
19966;DHT22;10144;50.874;4.762;2023-06-26T05:19:48;21.20;99.90
19966;DHT22;10144;50.874;4.762;2023-06-26T05:22:17;21.20;99.90
19966;DHT22;10144;50.874;4.762;2023-06-26T05:24:46;21.50;99.90
19966;DHT22;10144;50.874;4.762;2023-06-26T05:27:15;21.60;99.90
19966;DHT22;10144;50.874;4.762;2023-06-26T05:29:50;21.70;99.90
19966;DHT22;10144;50.874;4.762;2023-06-26T05:32:17;21.90;99.90
19966;DHT22;10144;50.874;4.762;2023-06-26T05:34:48;21.90;99.90
19966;DHT22;10144;50.874;4.762;2023-06-26T05:37:29;22.00;99.90
19966;DHT22;10144;50.874;4.762;2023-06-26T05:39:56;22.00;99.90
19966;DHT22;10144;50.874;4.762;2023-06-26T05:42:29;22.20;99.90
19966;DHT22;10144;50.874;4.762;2023-06-26T05:44:57;22.30;99.90
19966;DHT22;10144;50.874;4.762;2023-06-26T05:47:26;22.50;99.90
19966;DHT22;10144;50.874;4.762;2023-06-26T05:49:58;22.50;99.90
19966;DHT22;10144;50.874;4.762;2023-06-26T05:52:27;22.40;99.90
19966;DHT22;10144;50.874;4.762;2023-06-26T05:54:58;22.70;99.90
19966;DHT22;10144;50.874;4.762;2023-06-26T05:57:29;23.00;99.90
19966;DHT22;10144;50.874;4.762;2023-06-26T05:59:58;23.10;99.90
19966;DHT22;10144;50.874;4.762;2023-06-26T06:02:53;23.30;99.90
19966;DHT22;10144;50.874;4.762;2023-06-26T06:05:21;23.20;99.90
19966;DHT22;10144;50.874;4.762;2023-06-26T06:07:50;23.50;99.90
19966;DHT22;10144;50.874;4.762;2023-06-26T06:10:19;23.60;99.90
19966;DHT22;10144;50.874;4.762;2023-06-26T06:13:01;23.70;99.90
19966;DHT22;10144;50.874;4.762;2023-06-26T06:15:26;23.80;99.90
19966;DHT22;10144;50.874;4.762;2023-06-26T06:17:55;23.80;99.90
19966;DHT22;10144;50.874;4.762;2023-06-26T06:20:25;23.80;99.90
19966;DHT22;10144;50.874;4.762;2023-06-26T06:22:50;24.00;99.90
19966;DHT22;10144;50.874;4.762;2023-06-26T06:25:19;24.00;99.90
19966;DHT22;10144;50.874;4.762;2023-06-26T06:27:51;24.10;99.90
19966;DHT22;10144;50.874;4.762;2023-06-26T06:30:18;24.40;99.90
19966;DHT22;10144;50.874;4.762;2023-06-26T06:33:04;24.90;99.90
19966;DHT22;10144;50.874;4.762;2023-06-26T06:35:33;25.20;99.90
19966;DHT22;10144;50.874;4.762;2023-06-26T06:38:02;25.40;99.90
19966;DHT22;10144;50.874;4.762;2023-06-26T06:40:30;25.60;99.90
19966;DHT22;10144;50.874;4.762;2023-06-26T06:42:58;25.80;99.90
19966;DHT22;10144;50.874;4.762;2023-06-26T06:45:27;25.80;99.90
19966;DHT22;10144;50.874;4.762;2023-06-26T06:47:56;25.70;99.90
19966;DHT22;10144;50.874;4.762;2023-06-26T06:50:25;25.90;99.90
19966;DHT22;10144;50.874;4.762;2023-06-26T06:52:51;26.10;99.90
19966;DHT22;10144;50.874;4.762;2023-06-26T06:55:20;26.30;99.90
19966;DHT22;10144;50.874;4.762;2023-06-26T06:57:49;26.60;99.90
19966;DHT22;10144;50.874;4.762;2023-06-26T07:00:18;26.60;99.90
19966;DHT22;10144;50.874;4.762;2023-06-26T07:02:47;26.80;99.90
19966;DHT22;10144;50.874;4.762;2023-06-26T07:05:16;27.00;99.90
19966;DHT22;10144;50.874;4.762;2023-06-26T07:07:45;26.50;99.90
19966;DHT22;10144;50.874;4.762;2023-06-26T07:10:14;25.90;99.90
19966;DHT22;10144;50.874;4.762;2023-06-26T07:12:42;25.50;99.90
19966;DHT22;10144;50.874;4.762;2023-06-26T07:15:17;25.50;99.90
19966;DHT22;10144;50.874;4.762;2023-06-26T07:17:45;25.30;99.90
19966;DHT22;10144;50.874;4.762;2023-06-26T07:20:11;25.60;99.90
19966;DHT22;10144;50.874;4.762;2023-06-26T07:22:46;26.00;99.90
19966;DHT22;10144;50.874;4.762;2023-06-26T07:25:13;26.10;99.90
19966;DHT22;10144;50.874;4.762;2023-06-26T07:27:40;26.00;99.90
19966;DHT22;10144;50.874;4.762;2023-06-26T07:30:22;26.10;99.90
19966;DHT22;10144;50.874;4.762;2023-06-26T07:32:51;26.10;99.90
19966;DHT22;10144;50.874;4.762;2023-06-26T07:35:20;26.40;99.90
19966;DHT22;10144;50.874;4.762;2023-06-26T07:37:49;26.40;99.90
19966;DHT22;10144;50.874;4.762;2023-06-26T07:40:15;26.40;99.90
19966;DHT22;10144;50.874;4.762;2023-06-26T07:42:43;26.20;99.90
19966;DHT22;10144;50.874;4.762;2023-06-26T07:45:10;26.20;99.90
19966;DHT22;10144;50.874;4.762;2023-06-26T07:47:54;26.30;99.90
19966;DHT22;10144;50.874;4.762;2023-06-26T07:50:23;26.00;99.90
19966;DHT22;10144;50.874;4.762;2023-06-26T07:52:52;25.80;99.90
19966;DHT22;10144;50.874;4.762;2023-06-26T07:55:19;26.10;99.90
19966;DHT22;10144;50.874;4.762;2023-06-26T07:57:47;26.30;99.90
19966;DHT22;10144;50.874;4.762;2023-06-26T08:00:15;25.90;99.90
19966;DHT22;10144;50.874;4.762;2023-06-26T08:02:46;26.20;99.90
19966;DHT22;10144;50.874;4.762;2023-06-26T08:05:39;26.50;99.90
19966;DHT22;10144;50.874;4.762;2023-06-26T08:08:07;26.60;99.90
19966;DHT22;10144;50.874;4.762;2023-06-26T08:13:55;26.30;99.90
19966;DHT22;10144;50.874;4.762;2023-06-26T08:19:43;26.50;99.90
19966;DHT22;10144;50.874;4.762;2023-06-26T08:25:31;27.50;99.90
19966;DHT22;10144;50.874;4.762;2023-06-26T08:28:09;27.50;99.90
19966;DHT22;10144;50.874;4.762;2023-06-26T08:33:57;27.70;99.90
19966;DHT22;10144;50.874;4.762;2023-06-26T08:39:44;28.60;99.90
19966;DHT22;10144;50.874;4.762;2023-06-26T08:45:32;28.40;99.90
19966;DHT22;10144;50.874;4.762;2023-06-26T08:51:23;28.30;99.90
19966;DHT22;10144;50.874;4.762;2023-06-26T08:57:14;27.40;99.90
19966;DHT22;10144;50.874;4.762;2023-06-26T08:59:43;27.30;99.90
19966;DHT22;10144;50.874;4.762;2023-06-26T09:05:27;26.90;99.90
19966;DHT22;10144;50.874;4.762;2023-06-26T09:08:18;27.30;99.90
19966;DHT22;10144;50.874;4.762;2023-06-26T09:11:03;27.50;99.90
19966;DHT22;10144;50.874;4.762;2023-06-26T09:14:00;27.30;99.90
19966;DHT22;10144;50.874;4.762;2023-06-26T09:19:32;26.80;99.90
19966;DHT22;10144;50.874;4.762;2023-06-26T09:25:20;26.40;99.90
19966;DHT22;10144;50.874;4.762;2023-06-26T09:28:04;26.50;99.90
19966;DHT22;10144;50.874;4.762;2023-06-26T09:30:33;26.10;99.90
19966;DHT22;10144;50.874;4.762;2023-06-26T09:39:44;25.50;99.90
19966;DHT22;10144;50.874;4.762;2023-06-26T09:42:23;26.30;99.90
19966;DHT22;10144;50.874;4.762;2023-06-26T09:48:28;28.00;99.90
19966;DHT22;10144;50.874;4.762;2023-06-26T09:51:02;28.30;99.90
19966;DHT22;10144;50.874;4.762;2023-06-26T09:53:29;28.00;99.90
19966;DHT22;10144;50.874;4.762;2023-06-26T09:56:05;27.80;99.90
19966;DHT22;10144;50.874;4.762;2023-06-26T09:58:38;27.50;99.90
19966;DHT22;10144;50.874;4.762;2023-06-26T10:01:10;27.60;99.90
19966;DHT22;10144;50.874;4.762;2023-06-26T10:03:41;27.80;99.90
19966;DHT22;10144;50.874;4.762;2023-06-26T10:06:28;28.00;99.90
19966;DHT22;10144;50.874;4.762;2023-06-26T10:08:58;28.10;99.90
19966;DHT22;10144;50.874;4.762;2023-06-26T10:11:40;28.00;99.90
19966;DHT22;10144;50.874;4.762;2023-06-26T10:14:11;28.10;99.90
19966;DHT22;10144;50.874;4.762;2023-06-26T10:17:09;28.20;99.90
19966;DHT22;10144;50.874;4.762;2023-06-26T10:23:00;27.50;99.90
19966;DHT22;10144;50.874;4.762;2023-06-26T10:32:04;27.80;99.90
19966;DHT22;10144;50.874;4.762;2023-06-26T10:34:31;27.70;99.90
19966;DHT22;10144;50.874;4.762;2023-06-26T10:37:02;27.60;99.90
19966;DHT22;10144;50.874;4.762;2023-06-26T10:42:12;28.20;99.90
19966;DHT22;10144;50.874;4.762;2023-06-26T10:44:43;27.80;99.90
19966;DHT22;10144;50.874;4.762;2023-06-26T10:47:09;27.40;99.90
19966;DHT22;10144;50.874;4.762;2023-06-26T10:49:38;27.10;99.90
19966;DHT22;10144;50.874;4.762;2023-06-26T10:52:08;27.10;99.90
19966;DHT22;10144;50.874;4.762;2023-06-26T10:54:34;26.80;99.90
19966;DHT22;10144;50.874;4.762;2023-06-26T10:57:01;26.50;99.90
19966;DHT22;10144;50.874;4.762;2023-06-26T10:59:28;25.90;99.90
19966;DHT22;10144;50.874;4.762;2023-06-26T11:02:05;25.90;99.90
19966;DHT22;10144;50.874;4.762;2023-06-26T11:04:46;26.30;99.90
19966;DHT22;10144;50.874;4.762;2023-06-26T11:07:22;26.70;99.90
19966;DHT22;10144;50.874;4.762;2023-06-26T11:12:44;27.10;99.90
19966;DHT22;10144;50.874;4.762;2023-06-26T11:15:15;27.10;99.90
19966;DHT22;10144;50.874;4.762;2023-06-26T11:17:42;27.20;99.90
19966;DHT22;10144;50.874;4.762;2023-06-26T11:20:13;27.00;99.90
19966;DHT22;10144;50.874;4.762;2023-06-26T11:22:40;26.70;99.90
19966;DHT22;10144;50.874;4.762;2023-06-26T11:25:09;25.90;99.90
19966;DHT22;10144;50.874;4.762;2023-06-26T11:30:07;25.10;99.90
19966;DHT22;10144;50.874;4.762;2023-06-26T11:32:33;24.90;99.90
19966;DHT22;10144;50.874;4.762;2023-06-26T11:34:59;24.90;99.90
19966;DHT22;10144;50.874;4.762;2023-06-26T11:37:25;24.80;99.90
19966;DHT22;10144;50.874;4.762;2023-06-26T11:39:51;24.80;99.90
19966;DHT22;10144;50.874;4.762;2023-06-26T11:42:20;24.60;99.90
19966;DHT22;10144;50.874;4.762;2023-06-26T11:44:46;24.40;99.90
19966;DHT22;10144;50.874;4.762;2023-06-26T11:47:19;24.30;99.90
19966;DHT22;10144;50.874;4.762;2023-06-26T11:49:46;24.00;99.90
19966;DHT22;10144;50.874;4.762;2023-06-26T11:52:12;23.80;99.90
19966;DHT22;10144;50.874;4.762;2023-06-26T11:54:38;23.80;99.90
19966;DHT22;10144;50.874;4.762;2023-06-26T11:57:05;23.80;99.90
19966;DHT22;10144;50.874;4.762;2023-06-26T11:59:38;23.90;99.90
19966;DHT22;10144;50.874;4.762;2023-06-26T12:02:11;23.90;99.90
19966;DHT22;10144;50.874;4.762;2023-06-26T12:04:40;24.30;99.90
19966;DHT22;10144;50.874;4.762;2023-06-26T12:07:07;24.70;99.90
19966;DHT22;10144;50.874;4.762;2023-06-26T12:09:46;24.70;99.90
19966;DHT22;10144;50.874;4.762;2023-06-26T12:12:15;24.70;99.90
19966;DHT22;10144;50.874;4.762;2023-06-26T12:14:41;24.60;99.90
19966;DHT22;10144;50.874;4.762;2023-06-26T12:17:12;24.60;99.90
19966;DHT22;10144;50.874;4.762;2023-06-26T12:19:42;24.60;99.90
19966;DHT22;10144;50.874;4.762;2023-06-26T12:22:08;24.40;99.90
19966;DHT22;10144;50.874;4.762;2023-06-26T12:24:39;24.50;99.90
19966;DHT22;10144;50.874;4.762;2023-06-26T12:27:09;24.60;99.90
19966;DHT22;10144;50.874;4.762;2023-06-26T12:29:36;24.60;99.90
19966;DHT22;10144;50.874;4.762;2023-06-26T12:32:02;24.60;99.90
19966;DHT22;10144;50.874;4.762;2023-06-26T12:37:00;24.60;99.90
19966;DHT22;10144;50.874;4.762;2023-06-26T12:39:26;24.50;99.90
19966;DHT22;10144;50.874;4.762;2023-06-26T12:41:57;24.40;99.90
19966;DHT22;10144;50.874;4.762;2023-06-26T12:44:30;24.20;99.90
19966;DHT22;10144;50.874;4.762;2023-06-26T12:47:01;24.20;99.90
19966;DHT22;10144;50.874;4.762;2023-06-26T12:49:34;24.60;99.90
19966;DHT22;10144;50.874;4.762;2023-06-26T12:52:01;25.00;99.90
19966;DHT22;10144;50.874;4.762;2023-06-26T12:54:28;25.40;99.90
19966;DHT22;10144;50.874;4.762;2023-06-26T12:56:54;25.50;99.90
19966;DHT22;10144;50.874;4.762;2023-06-26T12:59:20;25.40;99.90
19966;DHT22;10144;50.874;4.762;2023-06-26T13:01:46;25.40;99.90
19966;DHT22;10144;50.874;4.762;2023-06-26T13:04:11;25.50;99.90
19966;DHT22;10144;50.874;4.762;2023-06-26T13:06:37;25.50;99.90
19966;DHT22;10144;50.874;4.762;2023-06-26T13:09:04;25.50;99.90
19966;DHT22;10144;50.874;4.762;2023-06-26T13:11:31;25.40;99.90
19966;DHT22;10144;50.874;4.762;2023-06-26T13:13:57;25.40;99.90
19966;DHT22;10144;50.874;4.762;2023-06-26T13:16:22;25.40;99.90
19966;DHT22;10144;50.874;4.762;2023-06-26T13:18:48;25.40;99.90
19966;DHT22;10144;50.874;4.762;2023-06-26T13:21:14;25.20;99.90
19966;DHT22;10144;50.874;4.762;2023-06-26T13:23:40;24.90;99.90
19966;DHT22;10144;50.874;4.762;2023-06-26T13:26:07;25.00;99.90
19966;DHT22;10144;50.874;4.762;2023-06-26T13:28:32;25.30;99.90
19966;DHT22;10144;50.874;4.762;2023-06-26T13:30:58;25.40;99.90
19966;DHT22;10144;50.874;4.762;2023-06-26T13:33:24;25.30;99.90
19966;DHT22;10144;50.874;4.762;2023-06-26T13:35:52;25.30;99.90
19966;DHT22;10144;50.874;4.762;2023-06-26T13:38:22;25.40;99.90
19966;DHT22;10144;50.874;4.762;2023-06-26T13:40:54;25.40;99.90
19966;DHT22;10144;50.874;4.762;2023-06-26T13:43:21;25.40;99.90
19966;DHT22;10144;50.874;4.762;2023-06-26T13:45:47;25.50;99.90
19966;DHT22;10144;50.874;4.762;2023-06-26T13:48:13;25.50;99.90
19966;DHT22;10144;50.874;4.762;2023-06-26T13:50:39;25.50;99.90
19966;DHT22;10144;50.874;4.762;2023-06-26T13:53:05;25.50;99.90
19966;DHT22;10144;50.874;4.762;2023-06-26T13:55:31;25.50;99.90
19966;DHT22;10144;50.874;4.762;2023-06-26T13:57:58;25.60;99.90
19966;DHT22;10144;50.874;4.762;2023-06-26T14:00:25;25.60;99.90
19966;DHT22;10144;50.874;4.762;2023-06-26T14:02:51;25.80;99.90
19966;DHT22;10144;50.874;4.762;2023-06-26T14:05:17;25.90;99.90
19966;DHT22;10144;50.874;4.762;2023-06-26T14:07:44;26.00;99.90
19966;DHT22;10144;50.874;4.762;2023-06-26T14:10:10;25.90;99.90
19966;DHT22;10144;50.874;4.762;2023-06-26T14:12:35;25.90;99.90
19966;DHT22;10144;50.874;4.762;2023-06-26T14:15:01;25.70;99.90
19966;DHT22;10144;50.874;4.762;2023-06-26T14:17:27;25.70;99.90
19966;DHT22;10144;50.874;4.762;2023-06-26T14:19:53;25.60;99.90
19966;DHT22;10144;50.874;4.762;2023-06-26T14:22:18;25.60;99.90
19966;DHT22;10144;50.874;4.762;2023-06-26T14:24:44;25.60;99.90
19966;DHT22;10144;50.874;4.762;2023-06-26T14:27:10;25.50;99.90
19966;DHT22;10144;50.874;4.762;2023-06-26T14:29:36;25.60;99.90
19966;DHT22;10144;50.874;4.762;2023-06-26T14:32:03;25.60;99.90
19966;DHT22;10144;50.874;4.762;2023-06-26T14:34:29;25.50;99.90
19966;DHT22;10144;50.874;4.762;2023-06-26T14:36:55;25.40;99.90
19966;DHT22;10144;50.874;4.762;2023-06-26T14:39:21;25.40;99.90
19966;DHT22;10144;50.874;4.762;2023-06-26T14:41:47;25.20;99.90
19966;DHT22;10144;50.874;4.762;2023-06-26T14:44:16;25.20;99.90
19966;DHT22;10144;50.874;4.762;2023-06-26T14:46:42;25.00;99.90
19966;DHT22;10144;50.874;4.762;2023-06-26T14:49:08;25.00;99.90
19966;DHT22;10144;50.874;4.762;2023-06-26T14:51:34;25.10;99.90
19966;DHT22;10144;50.874;4.762;2023-06-26T14:54:00;25.00;99.90
19966;DHT22;10144;50.874;4.762;2023-06-26T14:56:27;24.90;99.90
19966;DHT22;10144;50.874;4.762;2023-06-26T14:58:53;24.70;99.90
19966;DHT22;10144;50.874;4.762;2023-06-26T15:01:19;24.70;99.90
19966;DHT22;10144;50.874;4.762;2023-06-26T15:03:48;24.90;99.90
19966;DHT22;10144;50.874;4.762;2023-06-26T15:06:14;24.90;99.90
19966;DHT22;10144;50.874;4.762;2023-06-26T15:08:41;24.90;99.90
19966;DHT22;10144;50.874;4.762;2023-06-26T15:11:06;24.70;99.90
19966;DHT22;10144;50.874;4.762;2023-06-26T15:13:32;24.60;99.90
19966;DHT22;10144;50.874;4.762;2023-06-26T15:15:58;24.70;99.90
19966;DHT22;10144;50.874;4.762;2023-06-26T15:18:23;24.80;99.90
19966;DHT22;10144;50.874;4.762;2023-06-26T15:20:49;24.90;99.90
19966;DHT22;10144;50.874;4.762;2023-06-26T15:23:14;24.80;99.90
19966;DHT22;10144;50.874;4.762;2023-06-26T15:25:40;24.80;99.90
19966;DHT22;10144;50.874;4.762;2023-06-26T15:28:26;24.90;99.90
19966;DHT22;10144;50.874;4.762;2023-06-26T15:30:55;24.90;99.90
19966;DHT22;10144;50.874;4.762;2023-06-26T15:33:57;24.70;99.90
19966;DHT22;10144;50.874;4.762;2023-06-26T15:36:23;24.60;99.90
19966;DHT22;10144;50.874;4.762;2023-06-26T15:39:15;24.40;99.90
19966;DHT22;10144;50.874;4.762;2023-06-26T15:45:04;24.50;99.90
19966;DHT22;10144;50.874;4.762;2023-06-26T15:47:30;24.40;99.90
19966;DHT22;10144;50.874;4.762;2023-06-26T15:49:55;24.00;99.90
19966;DHT22;10144;50.874;4.762;2023-06-26T15:52:21;24.00;99.90
19966;DHT22;10144;50.874;4.762;2023-06-26T15:54:47;24.20;99.90
19966;DHT22;10144;50.874;4.762;2023-06-26T15:57:13;24.00;99.90
19966;DHT22;10144;50.874;4.762;2023-06-26T15:59:39;23.80;99.90
19966;DHT22;10144;50.874;4.762;2023-06-26T16:02:05;23.70;99.90
19966;DHT22;10144;50.874;4.762;2023-06-26T16:04:31;23.70;99.90
19966;DHT22;10144;50.874;4.762;2023-06-26T16:06:58;23.60;99.90
19966;DHT22;10144;50.874;4.762;2023-06-26T16:09:23;23.70;99.90
19966;DHT22;10144;50.874;4.762;2023-06-26T16:11:50;23.90;99.90
19966;DHT22;10144;50.874;4.762;2023-06-26T16:14:16;23.80;99.90
19966;DHT22;10144;50.874;4.762;2023-06-26T16:16:41;23.80;99.90
19966;DHT22;10144;50.874;4.762;2023-06-26T16:19:07;23.80;99.90
19966;DHT22;10144;50.874;4.762;2023-06-26T16:21:33;23.70;99.90
19966;DHT22;10144;50.874;4.762;2023-06-26T16:24:00;23.60;99.90
19966;DHT22;10144;50.874;4.762;2023-06-26T16:26:25;23.60;99.90
19966;DHT22;10144;50.874;4.762;2023-06-26T16:28:51;23.50;99.90
19966;DHT22;10144;50.874;4.762;2023-06-26T16:31:17;23.50;99.90
19966;DHT22;10144;50.874;4.762;2023-06-26T16:33:43;23.50;99.90
19966;DHT22;10144;50.874;4.762;2023-06-26T16:36:09;23.50;99.90
19966;DHT22;10144;50.874;4.762;2023-06-26T16:38:34;23.50;99.90
19966;DHT22;10144;50.874;4.762;2023-06-26T16:41:00;23.50;99.90
19966;DHT22;10144;50.874;4.762;2023-06-26T16:43:26;23.50;99.90
19966;DHT22;10144;50.874;4.762;2023-06-26T16:45:53;23.20;99.90
19966;DHT22;10144;50.874;4.762;2023-06-26T16:48:19;23.10;99.90
19966;DHT22;10144;50.874;4.762;2023-06-26T16:50:44;23.00;99.90
19966;DHT22;10144;50.874;4.762;2023-06-26T16:53:10;22.90;99.90
19966;DHT22;10144;50.874;4.762;2023-06-26T16:55:36;23.00;99.90
19966;DHT22;10144;50.874;4.762;2023-06-26T16:58:04;23.20;99.90
19966;DHT22;10144;50.874;4.762;2023-06-26T17:00:30;23.00;99.90
19966;DHT22;10144;50.874;4.762;2023-06-26T17:02:56;22.90;99.90
19966;DHT22;10144;50.874;4.762;2023-06-26T17:05:28;22.90;99.90